createdAt,value
2019-03-22T00:00:01.910Z,4.35
2019-03-22T00:01:01.930Z,4.37
2019-03-22T00:02:01.889Z,4.38
2019-03-22T00:03:02.035Z,4.40
2019-03-22T00:04:01.876Z,4.34
2019-03-22T00:05:01.868Z,4.34
2019-03-22T00:06:01.873Z,4.31
2019-03-22T00:07:01.828Z,4.24
2019-03-22T00:08:01.819Z,4.24
2019-03-22T00:09:01.807Z,4.32
2019-03-22T00:10:01.796Z,4.24
2019-03-22T00:11:01.800Z,4.26
2019-03-22T00:12:04.180Z,4.28
2019-03-22T00:13:01.769Z,4.28
2019-03-22T00:14:01.756Z,4.24
2019-03-22T00:15:01.753Z,4.26
2019-03-22T00:16:01.748Z,4.23
2019-03-22T00:17:01.732Z,4.22
2019-03-22T00:18:01.714Z,4.17
2019-03-22T00:19:01.700Z,4.19
2019-03-22T00:20:01.689Z,4.16
2019-03-22T00:21:01.685Z,4.16
2019-03-22T00:22:01.677Z,4.22
2019-03-22T00:23:01.670Z,4.24
2019-03-22T00:24:01.654Z,4.26
2019-03-22T00:25:01.667Z,4.10
2019-03-22T00:26:01.626Z,4.06
2019-03-22T00:27:01.621Z,4.16
2019-03-22T00:28:01.608Z,4.14
2019-03-22T00:29:01.598Z,4.12
2019-03-22T00:30:01.594Z,4.12
2019-03-22T00:31:01.610Z,4.13
2019-03-22T00:32:01.562Z,4.13
2019-03-22T00:33:01.565Z,4.13
2019-03-22T00:34:01.560Z,4.12
2019-03-22T00:35:01.553Z,4.10
2019-03-22T00:36:01.519Z,4.02
2019-03-22T00:37:01.520Z,4.02
2019-03-22T00:38:01.503Z,3.96
2019-03-22T00:39:01.486Z,4.02
2019-03-22T00:40:01.486Z,4.01
2019-03-22T00:41:01.494Z,4.05
2019-03-22T00:42:01.478Z,3.96
2019-03-22T00:43:01.444Z,3.95
2019-03-22T00:44:01.433Z,3.94
2019-03-22T00:45:01.420Z,4.01
2019-03-22T00:46:01.416Z,3.92
2019-03-22T00:47:01.515Z,3.98
2019-03-22T00:48:01.398Z,3.94
2019-03-22T00:49:01.397Z,4.04
2019-03-22T00:50:01.388Z,3.96
2019-03-22T00:51:01.362Z,3.92
2019-03-22T00:52:01.349Z,3.92
2019-03-22T00:53:01.355Z,3.91
2019-03-22T00:54:01.324Z,3.98
2019-03-22T00:55:01.321Z,3.92
2019-03-22T00:56:01.322Z,3.95
2019-03-22T00:57:01.305Z,3.92
2019-03-22T00:58:01.287Z,3.92
2019-03-22T00:59:01.335Z,3.80
2019-03-22T01:00:01.259Z,3.83
2019-03-22T01:01:01.256Z,3.77
2019-03-22T01:02:01.272Z,3.78
2019-03-22T01:03:01.233Z,3.76
2019-03-22T01:04:01.220Z,3.87
2019-03-22T01:05:01.230Z,3.84
2019-03-22T01:06:01.209Z,3.86
2019-03-22T01:07:01.201Z,3.80
2019-03-22T01:08:01.191Z,3.74
2019-03-22T01:09:01.190Z,3.78
2019-03-22T01:10:01.158Z,3.69
2019-03-22T01:11:01.150Z,3.73
2019-03-22T01:12:01.142Z,3.74
2019-03-22T01:13:01.130Z,3.70
2019-03-22T01:14:01.207Z,3.74
2019-03-22T01:15:01.119Z,3.76
2019-03-22T01:16:01.121Z,3.69
2019-03-22T01:17:01.110Z,3.76
2019-03-22T01:18:01.082Z,3.68
2019-03-22T01:19:01.055Z,3.68
2019-03-22T01:20:01.050Z,3.65
2019-03-22T01:21:01.052Z,3.70
2019-03-22T01:22:01.037Z,3.65
2019-03-22T01:23:01.023Z,3.62
2019-03-22T01:24:01.021Z,3.62
2019-03-22T01:25:00.990Z,3.69
2019-03-22T01:26:00.983Z,3.66
2019-03-22T01:27:00.977Z,3.55
2019-03-22T01:28:00.961Z,3.62
2019-03-22T01:29:00.956Z,3.59
2019-03-22T01:30:00.942Z,3.60
2019-03-22T01:31:00.933Z,3.51
2019-03-22T01:32:00.971Z,3.51
2019-03-22T01:33:00.909Z,3.59
2019-03-22T01:34:00.899Z,3.56
2019-03-22T01:35:00.884Z,3.59
2019-03-22T01:36:00.876Z,3.51
2019-03-22T01:37:00.875Z,3.44
2019-03-22T01:38:00.853Z,3.53
2019-03-22T01:39:00.852Z,3.45
2019-03-22T01:40:00.842Z,3.47
2019-03-22T01:41:00.822Z,3.42
2019-03-22T01:42:00.833Z,3.48
2019-03-22T01:43:00.809Z,3.44
2019-03-22T01:44:00.791Z,3.42
2019-03-22T01:45:00.789Z,3.44
2019-03-22T01:46:00.892Z,3.36
2019-03-22T01:47:00.814Z,3.37
2019-03-22T01:48:00.763Z,3.45
2019-03-22T01:49:00.746Z,3.45
2019-03-22T01:50:00.728Z,3.26
2019-03-22T01:51:00.738Z,3.29
2019-03-22T01:52:00.733Z,3.37
2019-03-22T01:53:00.856Z,3.41
2019-03-22T01:54:00.682Z,3.31
2019-03-22T01:55:00.674Z,3.29
2019-03-22T01:56:00.682Z,3.34
2019-03-22T01:57:00.676Z,3.32
2019-03-22T01:58:00.637Z,3.31
2019-03-22T01:59:00.644Z,3.28
2019-03-22T02:00:00.618Z,3.26
2019-03-22T02:01:00.614Z,3.36
2019-03-22T02:02:00.608Z,3.32
2019-03-22T02:03:00.583Z,3.28
2019-03-22T02:04:00.578Z,3.32
2019-03-22T02:05:00.572Z,3.32
2019-03-22T02:06:00.553Z,3.34
2019-03-22T02:07:00.577Z,3.22
2019-03-22T02:08:00.548Z,3.34
2019-03-22T02:09:00.520Z,3.32
2019-03-22T02:10:00.521Z,3.28
2019-03-22T02:11:00.499Z,3.28
2019-03-22T02:12:00.499Z,3.28
2019-03-22T02:13:00.478Z,3.22
2019-03-22T02:14:00.474Z,3.25
2019-03-22T02:15:00.478Z,3.31
2019-03-22T02:16:00.486Z,3.21
2019-03-22T02:17:00.455Z,3.14
2019-03-22T02:18:00.424Z,3.22
2019-03-22T02:19:00.415Z,3.22
2019-03-22T02:20:00.406Z,3.16
2019-03-22T02:21:00.395Z,3.21
2019-03-22T02:22:00.433Z,3.16
2019-03-22T02:23:00.376Z,3.13
2019-03-22T02:24:00.374Z,3.04
2019-03-22T02:25:00.382Z,3.07
2019-03-22T02:26:00.348Z,3.08
2019-03-22T02:27:00.353Z,3.05
2019-03-22T02:28:04.370Z,3.10
2019-03-22T02:29:00.310Z,2.95
2019-03-22T02:30:00.546Z,2.95
2019-03-22T02:31:00.296Z,3.05
2019-03-22T02:32:00.300Z,2.98
2019-03-22T02:33:00.269Z,2.92
2019-03-22T02:34:00.255Z,2.90
2019-03-22T02:35:00.437Z,2.89
2019-03-22T02:36:00.231Z,2.90
2019-03-22T02:37:00.261Z,2.92
2019-03-22T02:38:00.238Z,2.77
2019-03-22T02:39:00.217Z,2.89
2019-03-22T02:40:00.570Z,2.87
2019-03-22T02:41:00.188Z,2.83
2019-03-22T02:42:00.184Z,2.82
2019-03-22T02:43:00.168Z,2.79
2019-03-22T02:44:00.283Z,2.77
2019-03-22T02:45:00.501Z,2.82
2019-03-22T02:46:00.139Z,2.79
2019-03-22T02:47:00.135Z,2.80
2019-03-22T02:48:00.108Z,2.75
2019-03-22T02:49:00.127Z,2.80
2019-03-22T02:50:00.469Z,2.65
2019-03-22T02:51:00.074Z,2.72
2019-03-22T02:52:00.085Z,2.67
2019-03-22T02:53:00.073Z,2.64
2019-03-22T02:54:00.042Z,2.69
2019-03-22T02:55:00.028Z,2.64
2019-03-22T02:56:00.135Z,2.67
2019-03-22T02:57:00.082Z,2.62
2019-03-22T02:58:00.011Z,2.60
2019-03-22T02:58:59.993Z,2.56
2019-03-22T03:00:00.011Z,2.50
2019-03-22T03:00:59.986Z,2.53
2019-03-22T03:01:59.970Z,2.60
2019-03-22T03:02:59.949Z,2.51
2019-03-22T03:03:59.933Z,2.49
2019-03-22T03:04:59.923Z,2.47
2019-03-22T03:05:59.934Z,2.47
2019-03-22T03:06:59.924Z,2.44
2019-03-22T03:07:59.901Z,2.51
2019-03-22T03:08:59.883Z,2.50
2019-03-22T03:09:59.871Z,2.47
2019-03-22T03:10:59.860Z,2.42
2019-03-22T03:11:59.879Z,2.36
2019-03-22T03:12:59.835Z,2.44
2019-03-22T03:13:59.829Z,2.36
2019-03-22T03:14:59.831Z,2.39
2019-03-22T03:15:59.806Z,2.36
2019-03-22T03:16:59.803Z,2.43
2019-03-22T03:17:59.821Z,2.46
2019-03-22T03:18:59.771Z,2.47
2019-03-22T03:19:59.765Z,2.39
2019-03-22T03:20:59.780Z,2.44
2019-03-22T03:21:59.762Z,2.49
2019-03-22T03:22:59.738Z,2.39
2019-03-22T03:23:59.735Z,2.53
2019-03-22T03:24:59.711Z,2.46
2019-03-22T03:25:59.702Z,2.42
2019-03-22T03:26:59.697Z,2.39
2019-03-22T03:27:59.737Z,2.47
2019-03-22T03:28:59.727Z,2.42
2019-03-22T03:29:59.766Z,2.33
2019-03-22T03:30:59.840Z,2.47
2019-03-22T03:31:59.644Z,2.49
2019-03-22T03:32:59.660Z,2.47
2019-03-22T03:33:59.635Z,2.44
2019-03-22T03:34:59.607Z,2.42
2019-03-22T03:35:59.617Z,2.39
2019-03-22T03:36:59.585Z,2.43
2019-03-22T03:37:59.606Z,2.39
2019-03-22T03:38:59.556Z,2.43
2019-03-22T03:39:59.553Z,2.36
2019-03-22T03:40:59.553Z,2.46
2019-03-22T03:41:59.539Z,2.42
2019-03-22T03:42:59.516Z,2.50
2019-03-22T03:43:59.514Z,2.36
2019-03-22T03:44:59.508Z,2.43
2019-03-22T03:45:59.515Z,2.46
2019-03-22T03:46:59.473Z,2.42
2019-03-22T03:47:59.463Z,2.43
2019-03-22T03:48:59.459Z,2.29
2019-03-22T03:49:59.461Z,2.42
2019-03-22T03:50:59.443Z,2.36
2019-03-22T03:51:59.421Z,2.35
2019-03-22T03:52:59.431Z,2.38
2019-03-22T03:53:59.396Z,2.42
2019-03-22T03:54:59.421Z,2.28
2019-03-22T03:55:59.383Z,2.35
2019-03-22T03:56:59.373Z,2.31
2019-03-22T03:57:59.357Z,2.28
2019-03-22T03:58:59.350Z,2.26
2019-03-22T03:59:59.352Z,2.26
2019-03-22T04:00:59.328Z,2.25
2019-03-22T04:01:59.353Z,2.31
2019-03-22T04:02:59.309Z,2.28
2019-03-22T04:03:59.289Z,2.20
2019-03-22T04:04:59.336Z,2.28
2019-03-22T04:05:59.273Z,2.25
2019-03-22T04:06:59.273Z,2.20
2019-03-22T04:07:59.272Z,2.18
2019-03-22T04:08:59.256Z,2.22
2019-03-22T04:09:59.241Z,2.18
2019-03-22T04:10:59.233Z,2.31
2019-03-22T04:11:59.220Z,2.24
2019-03-22T04:12:59.227Z,2.26
2019-03-22T04:13:59.183Z,2.18
2019-03-22T04:14:59.177Z,2.24
2019-03-22T04:15:59.225Z,2.24
2019-03-22T04:16:59.154Z,2.24
2019-03-22T04:17:59.222Z,2.18
2019-03-22T04:18:59.134Z,2.18
2019-03-22T04:19:59.145Z,2.20
2019-03-22T04:20:59.130Z,2.11
2019-03-22T04:21:59.129Z,2.14
2019-03-22T04:22:59.097Z,2.18
2019-03-22T04:23:59.087Z,2.17
2019-03-22T04:24:59.061Z,2.11
2019-03-22T04:25:59.051Z,2.22
2019-03-22T04:26:59.041Z,2.17
2019-03-22T04:27:59.056Z,2.18
2019-03-22T04:29:07.145Z,2.13
2019-03-22T04:30:00.020Z,2.07
2019-03-22T04:30:59.002Z,2.13
2019-03-22T04:31:58.998Z,2.06
2019-03-22T04:32:59.132Z,2.06
2019-03-22T04:33:58.983Z,2.00
2019-03-22T04:34:58.966Z,2.04
2019-03-22T04:35:58.951Z,2.02
2019-03-22T04:36:58.938Z,2.06
2019-03-22T04:37:58.938Z,2.06
2019-03-22T04:38:58.916Z,2.10
2019-03-22T04:39:58.910Z,2.04
2019-03-22T04:40:58.902Z,2.10
2019-03-22T04:41:58.901Z,2.08
2019-03-22T04:42:58.913Z,2.06
2019-03-22T04:43:58.866Z,2.06
2019-03-22T04:44:58.853Z,2.02
2019-03-22T04:45:58.839Z,2.04
2019-03-22T04:46:58.834Z,2.04
2019-03-22T04:47:58.828Z,1.94
2019-03-22T04:48:58.810Z,1.92
2019-03-22T04:49:58.802Z,1.99
2019-03-22T04:50:58.831Z,1.91
2019-03-22T04:51:58.784Z,1.91
2019-03-22T04:52:58.793Z,1.87
2019-03-22T04:53:58.752Z,1.87
2019-03-22T04:54:58.800Z,1.91
2019-03-22T04:55:58.732Z,1.88
2019-03-22T04:56:58.724Z,1.89
2019-03-22T04:57:58.722Z,1.91
2019-03-22T04:58:58.703Z,1.91
2019-03-22T04:59:58.715Z,1.91
2019-03-22T05:00:58.694Z,1.91
2019-03-22T05:01:58.686Z,1.91
2019-03-22T05:02:58.688Z,1.84
2019-03-22T05:03:59.217Z,1.89
2019-03-22T05:04:58.644Z,1.94
2019-03-22T05:05:58.624Z,1.94
2019-03-22T05:06:58.617Z,1.87
2019-03-22T05:07:58.626Z,1.77
2019-03-22T05:08:58.605Z,1.78
2019-03-22T05:09:58.616Z,1.88
2019-03-22T05:10:58.583Z,1.85
2019-03-22T05:11:58.560Z,1.78
2019-03-22T05:12:58.577Z,1.84
2019-03-22T05:13:58.541Z,1.77
2019-03-22T05:14:58.596Z,1.84
2019-03-22T05:15:58.520Z,1.71
2019-03-22T05:16:58.514Z,1.74
2019-03-22T05:17:58.517Z,1.84
2019-03-22T05:18:58.491Z,1.84
2019-03-22T05:19:58.510Z,1.74
2019-03-22T05:20:58.467Z,1.88
2019-03-22T05:21:58.456Z,1.84
2019-03-22T05:22:58.600Z,1.78
2019-03-22T05:23:58.498Z,1.81
2019-03-22T05:24:58.525Z,1.78
2019-03-22T05:25:58.435Z,1.80
2019-03-22T05:26:58.400Z,1.80
2019-03-22T05:27:58.416Z,1.84
2019-03-22T05:28:58.378Z,1.81
2019-03-22T05:29:58.375Z,1.84
2019-03-22T05:30:58.359Z,1.78
2019-03-22T05:31:58.350Z,1.85
2019-03-22T05:32:58.346Z,1.71
2019-03-22T05:33:58.334Z,1.71
2019-03-22T05:34:58.330Z,1.80
2019-03-22T05:35:58.307Z,1.88
2019-03-22T05:36:58.293Z,1.74
2019-03-22T05:37:58.346Z,1.89
2019-03-22T05:38:59.143Z,1.81
2019-03-22T05:39:58.373Z,1.84
2019-03-22T05:40:58.469Z,1.89
2019-03-22T05:41:58.259Z,1.94
2019-03-22T05:42:58.240Z,1.84
2019-03-22T05:43:58.230Z,1.94
2019-03-22T05:44:58.267Z,1.89
2019-03-22T05:45:58.201Z,1.87
2019-03-22T05:46:58.230Z,1.91
2019-03-22T05:47:58.197Z,1.97
2019-03-22T05:48:58.171Z,1.89
2019-03-22T05:49:58.155Z,1.95
2019-03-22T05:50:58.171Z,2.07
2019-03-22T05:51:58.140Z,2.00
2019-03-22T05:52:58.134Z,2.10
2019-03-22T05:53:58.137Z,2.14
2019-03-22T05:54:58.102Z,2.08
2019-03-22T05:55:58.094Z,2.15
2019-03-22T05:56:58.091Z,2.15
2019-03-22T05:57:58.071Z,2.20
2019-03-22T05:58:58.089Z,2.26
2019-03-22T05:59:58.052Z,2.31
2019-03-22T06:00:58.048Z,2.20
2019-03-22T06:01:58.047Z,2.24
2019-03-22T06:02:58.017Z,2.33
2019-03-22T06:03:58.055Z,2.33
2019-03-22T06:04:58.029Z,2.39
2019-03-22T06:05:58.002Z,2.35
2019-03-22T06:06:58.042Z,2.50
2019-03-22T06:07:57.966Z,2.47
2019-03-22T06:08:57.956Z,2.47
2019-03-22T06:09:57.969Z,2.61
2019-03-22T06:10:57.931Z,2.65
2019-03-22T06:11:57.945Z,2.62
2019-03-22T06:12:57.910Z,2.67
2019-03-22T06:13:57.900Z,2.65
2019-03-22T06:14:57.890Z,2.71
2019-03-22T06:15:57.881Z,2.80
2019-03-22T06:16:57.874Z,2.75
2019-03-22T06:17:57.876Z,2.83
2019-03-22T06:18:57.861Z,2.80
2019-03-22T06:19:57.835Z,2.77
2019-03-22T06:20:57.863Z,3.00
2019-03-22T06:21:57.839Z,2.87
2019-03-22T06:22:57.807Z,2.92
2019-03-22T06:23:57.826Z,2.95
2019-03-22T06:24:57.780Z,3.01
2019-03-22T06:25:57.838Z,3.01
2019-03-22T06:26:57.769Z,3.05
2019-03-22T06:27:57.761Z,3.11
2019-03-22T06:28:57.966Z,3.21
2019-03-22T06:29:57.785Z,3.16
2019-03-22T06:30:57.780Z,3.13
2019-03-22T06:31:57.738Z,3.26
2019-03-22T06:32:57.694Z,3.23
2019-03-22T06:33:57.683Z,3.34
2019-03-22T06:34:57.721Z,3.29
2019-03-22T06:35:57.671Z,3.40
2019-03-22T06:36:57.700Z,3.42
2019-03-22T06:37:57.644Z,3.45
2019-03-22T06:38:57.636Z,3.45
2019-03-22T06:39:57.625Z,3.59
2019-03-22T06:40:57.636Z,3.66
2019-03-22T06:41:57.602Z,3.69
2019-03-22T06:42:57.596Z,3.73
2019-03-22T06:43:57.618Z,3.83
2019-03-22T06:44:57.574Z,3.91
2019-03-22T06:45:57.638Z,3.92
2019-03-22T06:46:57.544Z,3.95
2019-03-22T06:47:57.540Z,4.08
2019-03-22T06:48:57.538Z,4.16
2019-03-22T06:49:57.553Z,4.19
2019-03-22T06:50:57.655Z,4.23
2019-03-22T06:51:57.491Z,4.28
2019-03-22T06:52:57.490Z,4.37
2019-03-22T06:53:57.475Z,4.41
2019-03-22T06:54:57.478Z,4.45
2019-03-22T06:55:57.476Z,4.58
2019-03-22T06:56:57.438Z,4.60
2019-03-22T06:57:57.426Z,4.63
2019-03-22T06:58:57.449Z,4.77
2019-03-22T07:00:06.494Z,4.78
2019-03-22T07:00:58.398Z,4.78
2019-03-22T07:01:57.431Z,4.87
2019-03-22T07:02:57.373Z,4.93
2019-03-22T07:03:57.367Z,4.97
2019-03-22T07:04:57.381Z,5.12
2019-03-22T07:05:57.454Z,5.04
2019-03-22T07:06:57.330Z,5.15
2019-03-22T07:07:57.338Z,5.21
2019-03-22T07:08:57.309Z,5.20
2019-03-22T07:09:57.317Z,5.28
2019-03-22T07:10:57.335Z,5.29
2019-03-22T07:11:57.344Z,5.38
2019-03-22T07:12:57.287Z,5.44
2019-03-22T07:13:57.269Z,5.46
2019-03-22T07:14:57.261Z,5.50
2019-03-22T07:15:57.233Z,5.51
2019-03-22T07:16:58.943Z,5.59
2019-03-22T07:17:57.214Z,5.66
2019-03-22T07:18:57.208Z,5.72
2019-03-22T07:19:57.202Z,5.83
2019-03-22T07:20:57.192Z,5.86
2019-03-22T07:21:57.168Z,5.94
2019-03-22T07:22:57.185Z,5.97
2019-03-22T07:23:57.178Z,6.04
2019-03-22T07:24:57.149Z,6.02
2019-03-22T07:25:57.127Z,6.07
2019-03-22T07:26:57.122Z,6.14
2019-03-22T07:27:57.249Z,6.12
2019-03-22T07:28:57.136Z,6.27
2019-03-22T07:29:57.137Z,6.31
2019-03-22T07:30:57.080Z,6.41
2019-03-22T07:31:57.066Z,6.45
2019-03-22T07:32:57.060Z,6.57
2019-03-22T07:33:57.047Z,6.56
2019-03-22T07:34:57.061Z,6.64
2019-03-22T07:35:57.023Z,6.78
2019-03-22T07:36:57.375Z,6.78
2019-03-22T07:37:57.051Z,6.78
2019-03-22T07:38:56.990Z,6.88
2019-03-22T07:39:56.988Z,6.89
2019-03-22T07:40:56.990Z,7.03
2019-03-22T07:41:56.959Z,6.97
2019-03-22T07:42:56.961Z,7.11
2019-03-22T07:43:56.939Z,7.07
2019-03-22T07:44:56.963Z,7.14
2019-03-22T07:45:56.919Z,7.18
2019-03-22T07:46:56.905Z,7.21
2019-03-22T07:47:56.913Z,7.24
2019-03-22T07:48:56.884Z,7.31
2019-03-22T07:49:57.189Z,7.39
2019-03-22T07:50:56.875Z,7.35
2019-03-22T07:51:56.938Z,7.48
2019-03-22T07:52:56.918Z,7.50
2019-03-22T07:53:56.951Z,7.53
2019-03-22T07:54:56.855Z,7.50
2019-03-22T07:55:56.809Z,7.67
2019-03-22T07:56:56.797Z,7.72
2019-03-22T07:57:56.804Z,7.67
2019-03-22T07:58:56.811Z,7.79
2019-03-22T07:59:56.837Z,7.90
2019-03-22T08:00:56.861Z,7.87
2019-03-22T08:01:56.745Z,7.94
2019-03-22T08:02:56.733Z,8.00
2019-03-22T08:03:56.721Z,8.06
2019-03-22T08:04:56.756Z,8.26
2019-03-22T08:05:56.699Z,8.28
2019-03-22T08:06:56.689Z,8.36
2019-03-22T08:07:56.680Z,8.41
2019-03-22T08:08:56.682Z,8.41
2019-03-22T08:09:56.766Z,8.67
2019-03-22T08:10:56.649Z,8.74
2019-03-22T08:11:56.654Z,8.87
2019-03-22T08:12:56.630Z,9.00
2019-03-22T08:13:56.623Z,9.19
2019-03-22T08:14:56.616Z,9.29
2019-03-22T08:15:57.661Z,9.32
2019-03-22T08:16:56.593Z,9.59
2019-03-22T08:17:57.230Z,9.68
2019-03-22T08:18:56.559Z,9.82
2019-03-22T08:19:57.333Z,10.02
2019-03-22T08:20:56.559Z,10.17
2019-03-22T08:21:56.539Z,10.37
2019-03-22T08:22:56.516Z,10.54
2019-03-22T08:23:56.533Z,10.78
2019-03-22T08:24:56.537Z,11.08
2019-03-22T08:25:56.506Z,11.32
2019-03-22T08:26:56.581Z,11.73
2019-03-22T08:27:56.472Z,12.00
2019-03-22T08:28:56.464Z,12.29
2019-03-22T08:29:56.447Z,12.57
2019-03-22T08:30:56.449Z,12.85
2019-03-22T08:31:56.423Z,13.18
2019-03-22T08:32:56.409Z,13.59
2019-03-22T08:33:56.415Z,13.77
2019-03-22T08:34:56.391Z,14.10
2019-03-22T08:35:56.423Z,14.35
2019-03-22T08:36:56.410Z,14.59
2019-03-22T08:37:56.384Z,14.81
2019-03-22T08:38:56.360Z,14.94
2019-03-22T08:39:56.405Z,15.03
2019-03-22T08:40:56.326Z,15.33
2019-03-22T08:41:56.312Z,15.49
2019-03-22T08:42:56.303Z,15.72
2019-03-22T08:43:56.299Z,16.01
2019-03-22T08:44:56.281Z,16.26
2019-03-22T08:45:56.269Z,16.42
2019-03-22T08:46:56.289Z,16.61
2019-03-22T08:47:56.291Z,16.75
2019-03-22T08:48:56.311Z,16.91
2019-03-22T08:49:56.259Z,17.06
2019-03-22T08:50:56.214Z,17.16
2019-03-22T08:51:56.224Z,17.22
2019-03-22T08:52:56.207Z,17.36
2019-03-22T08:53:56.183Z,17.26
2019-03-22T08:54:56.214Z,17.22
2019-03-22T08:55:56.262Z,17.27
2019-03-22T08:56:56.186Z,17.34
2019-03-22T08:57:56.137Z,17.34
2019-03-22T08:58:56.129Z,17.49
2019-03-22T08:59:56.119Z,17.56
2019-03-22T09:00:57.897Z,17.65
2019-03-22T09:01:56.098Z,17.65
2019-03-22T09:02:56.112Z,17.79
2019-03-22T09:03:56.147Z,17.82
2019-03-22T09:04:56.072Z,17.97
2019-03-22T09:05:56.067Z,18.11
2019-03-22T09:06:58.855Z,18.05
2019-03-22T09:07:56.046Z,18.22
2019-03-22T09:08:56.015Z,18.33
2019-03-22T09:09:56.006Z,18.28
2019-03-22T09:10:56.059Z,18.47
2019-03-22T09:11:55.984Z,18.63
2019-03-22T09:12:55.977Z,18.78
2019-03-22T09:13:56.045Z,18.88
2019-03-22T09:14:55.957Z,19.00
2019-03-22T09:15:55.970Z,19.19
2019-03-22T09:16:55.933Z,19.15
2019-03-22T09:17:56.031Z,19.08
2019-03-22T09:18:55.912Z,19.08
2019-03-22T09:19:55.984Z,19.07
2019-03-22T09:20:55.901Z,19.12
2019-03-22T09:21:55.882Z,19.14
2019-03-22T09:22:55.882Z,19.21
2019-03-22T09:23:55.877Z,19.19
2019-03-22T09:24:55.941Z,19.39
2019-03-22T09:25:55.837Z,19.40
2019-03-22T09:26:55.862Z,19.47
2019-03-22T09:27:55.819Z,19.37
2019-03-22T09:28:55.826Z,19.33
2019-03-22T09:29:55.802Z,19.26
2019-03-22T09:30:55.820Z,19.26
2019-03-22T09:31:55.785Z,19.12
2019-03-22T09:32:55.824Z,19.09
2019-03-22T09:33:55.750Z,19.04
2019-03-22T09:34:55.765Z,19.02
2019-03-22T09:35:55.845Z,19.02
2019-03-22T09:36:55.725Z,19.00
2019-03-22T09:37:55.741Z,18.88
2019-03-22T09:38:55.729Z,18.98
2019-03-22T09:39:55.702Z,18.93
2019-03-22T09:40:55.751Z,18.88
2019-03-22T09:41:55.691Z,18.98
2019-03-22T09:42:55.708Z,18.96
2019-03-22T09:43:55.680Z,18.96
2019-03-22T09:44:55.689Z,18.88
2019-03-22T09:45:55.625Z,18.99
2019-03-22T09:46:55.657Z,18.92
2019-03-22T09:47:55.602Z,18.99
2019-03-22T09:48:55.598Z,19.09
2019-03-22T09:49:55.599Z,19.24
2019-03-22T09:50:55.593Z,19.31
2019-03-22T09:51:55.614Z,19.40
2019-03-22T09:52:55.580Z,19.52
2019-03-22T09:53:55.718Z,19.66
2019-03-22T09:54:55.599Z,19.74
2019-03-22T09:55:55.532Z,19.69
2019-03-22T09:56:55.539Z,19.73
2019-03-22T09:57:55.508Z,19.82
2019-03-22T09:58:55.527Z,19.94
2019-03-22T09:59:55.497Z,20.14
2019-03-22T10:00:55.551Z,20.31
2019-03-22T10:01:55.454Z,20.39
2019-03-22T10:02:55.445Z,20.43
2019-03-22T10:03:55.494Z,20.44
2019-03-22T10:04:55.428Z,20.62
2019-03-22T10:05:55.435Z,20.65
2019-03-22T10:06:55.451Z,20.63
2019-03-22T10:07:55.407Z,20.67
2019-03-22T10:08:55.450Z,20.82
2019-03-22T10:09:55.390Z,20.93
2019-03-22T10:10:55.371Z,21.07
2019-03-22T10:11:55.348Z,21.12
2019-03-22T10:12:55.370Z,21.12
2019-03-22T10:13:55.332Z,21.20
2019-03-22T10:14:55.321Z,21.27
2019-03-22T10:15:55.677Z,21.36
2019-03-22T10:16:55.336Z,21.50
2019-03-22T10:17:55.288Z,21.52
2019-03-22T10:18:55.305Z,21.67
2019-03-22T10:19:55.405Z,21.83
2019-03-22T10:20:55.285Z,21.77
2019-03-22T10:21:55.293Z,21.89
2019-03-22T10:22:55.239Z,21.83
2019-03-22T10:23:55.243Z,21.88
2019-03-22T10:24:55.251Z,21.83
2019-03-22T10:25:55.230Z,21.83
2019-03-22T10:26:55.210Z,21.70
2019-03-22T10:27:55.263Z,21.62
2019-03-22T10:28:55.198Z,21.54
2019-03-22T10:29:55.172Z,21.61
2019-03-22T10:30:55.190Z,21.66
2019-03-22T10:31:55.199Z,21.66
2019-03-22T10:32:55.136Z,21.79
2019-03-22T10:33:55.142Z,21.76
2019-03-22T10:34:55.125Z,21.95
2019-03-22T10:35:55.122Z,21.96
2019-03-22T10:36:55.118Z,22.08
2019-03-22T10:38:00.531Z,22.29
2019-03-22T10:38:56.132Z,22.29
2019-03-22T10:39:55.069Z,22.39
2019-03-22T10:40:55.058Z,22.38
2019-03-22T10:41:55.047Z,22.53
2019-03-22T10:42:55.074Z,22.47
2019-03-22T10:43:55.047Z,22.55
2019-03-22T10:44:55.024Z,22.51
2019-03-22T10:45:55.062Z,22.41
2019-03-22T10:46:55.037Z,22.48
2019-03-22T10:47:54.994Z,22.50
2019-03-22T10:48:54.970Z,22.41
2019-03-22T10:49:55.013Z,22.41
2019-03-22T10:50:54.983Z,22.41
2019-03-22T10:51:57.785Z,22.50
2019-03-22T10:52:55.067Z,22.48
2019-03-22T10:53:54.923Z,22.44
2019-03-22T10:54:54.983Z,22.38
2019-03-22T10:55:54.894Z,22.47
2019-03-22T10:56:54.889Z,22.47
2019-03-22T10:57:55.601Z,22.59
2019-03-22T10:58:54.864Z,22.65
2019-03-22T10:59:54.884Z,22.73
2019-03-22T11:00:54.852Z,22.80
2019-03-22T11:02:03.188Z,23.03
2019-03-22T11:02:55.823Z,23.17
2019-03-22T11:03:54.845Z,23.32
2019-03-22T11:04:54.823Z,23.48
2019-03-22T11:05:54.801Z,23.58
2019-03-22T11:06:54.795Z,23.65
2019-03-22T11:07:54.775Z,23.65
2019-03-22T11:08:54.763Z,23.62
2019-03-22T11:09:54.757Z,23.55
2019-03-22T11:10:54.748Z,23.46
2019-03-22T11:11:54.741Z,23.54
2019-03-22T11:12:54.726Z,23.54
2019-03-22T11:13:54.713Z,23.55
2019-03-22T11:14:54.718Z,23.58
2019-03-22T11:15:54.702Z,23.59
2019-03-22T11:16:54.704Z,23.59
2019-03-22T11:17:54.674Z,23.62
2019-03-22T11:18:54.659Z,23.58
2019-03-22T11:19:54.663Z,23.51
2019-03-22T11:21:04.514Z,23.34
2019-03-22T11:21:55.645Z,23.41
2019-03-22T11:22:54.624Z,23.32
2019-03-22T11:23:54.640Z,23.32
2019-03-22T11:24:54.604Z,23.39
2019-03-22T11:26:03.841Z,23.55
2019-03-22T11:26:55.589Z,23.62
2019-03-22T11:27:54.572Z,23.73
2019-03-22T11:28:54.561Z,23.77
2019-03-22T11:29:54.592Z,23.92
2019-03-22T11:31:01.046Z,23.99
2019-03-22T11:31:55.531Z,24.05
2019-03-22T11:32:54.532Z,24.16
2019-03-22T11:33:54.532Z,24.16
2019-03-22T11:34:54.506Z,24.24
2019-03-22T11:35:54.512Z,24.16
2019-03-22T11:36:54.483Z,24.28
2019-03-22T11:37:54.477Z,24.13
2019-03-22T11:38:54.458Z,24.23
2019-03-22T11:39:54.453Z,24.28
2019-03-22T11:40:54.439Z,24.29
2019-03-22T11:41:54.432Z,24.29
2019-03-22T11:42:54.422Z,24.36
2019-03-22T11:43:54.418Z,24.35
2019-03-22T11:44:54.482Z,24.33
2019-03-22T11:45:54.395Z,24.30
2019-03-22T11:46:54.388Z,24.29
2019-03-22T11:47:54.404Z,24.38
2019-03-22T11:48:54.359Z,24.21
2019-03-22T11:49:54.348Z,24.21
2019-03-22T11:50:54.338Z,24.20
2019-03-22T11:51:54.341Z,24.01
2019-03-22T11:52:54.327Z,24.05
2019-03-22T11:53:54.325Z,24.01
2019-03-22T11:54:54.301Z,23.93
2019-03-22T11:55:54.290Z,23.91
2019-03-22T11:56:54.295Z,23.80
2019-03-22T11:57:54.269Z,23.61
2019-03-22T11:58:54.255Z,23.56
2019-03-22T11:59:54.245Z,23.32
2019-03-22T12:00:54.232Z,23.23
2019-03-22T12:01:54.266Z,23.21
2019-03-22T12:02:54.224Z,23.23
2019-03-22T12:03:54.212Z,23.08
2019-03-22T12:04:54.198Z,23.10
2019-03-22T12:05:54.180Z,23.15
2019-03-22T12:06:54.215Z,22.93
2019-03-22T12:07:54.171Z,22.80
2019-03-22T12:08:54.191Z,22.87
2019-03-22T12:09:54.142Z,22.98
2019-03-22T12:10:54.170Z,22.91
2019-03-22T12:11:54.142Z,22.93
2019-03-22T12:12:54.140Z,22.98
2019-03-22T12:13:54.167Z,22.96
2019-03-22T12:14:54.103Z,23.17
2019-03-22T12:15:54.687Z,23.28
2019-03-22T12:16:54.130Z,23.32
2019-03-22T12:17:54.201Z,23.48
2019-03-22T12:18:54.053Z,23.62
2019-03-22T12:19:54.041Z,23.62
2019-03-22T12:20:54.049Z,23.78
2019-03-22T12:21:54.030Z,23.91
2019-03-22T12:22:54.011Z,23.92
2019-03-22T12:23:54.015Z,24.02
2019-03-22T12:24:53.984Z,24.10
2019-03-22T12:25:53.975Z,24.13
2019-03-22T12:26:53.967Z,24.16
2019-03-22T12:27:53.958Z,24.23
2019-03-22T12:28:53.948Z,24.36
2019-03-22T12:29:53.957Z,24.42
2019-03-22T12:30:53.961Z,24.60
2019-03-22T12:31:53.916Z,24.76
2019-03-22T12:32:53.912Z,24.92
2019-03-22T12:33:53.901Z,25.03
2019-03-22T12:34:53.893Z,25.10
2019-03-22T12:35:54.038Z,25.13
2019-03-22T12:36:53.896Z,25.16
2019-03-22T12:37:53.870Z,25.32
2019-03-22T12:38:53.845Z,25.46
2019-03-22T12:39:53.840Z,25.58
2019-03-22T12:40:53.830Z,25.72
2019-03-22T12:41:53.816Z,25.70
2019-03-22T12:42:53.814Z,25.70
2019-03-22T12:43:53.795Z,25.65
2019-03-22T12:44:53.804Z,25.60
2019-03-22T12:45:53.775Z,25.60
2019-03-22T12:46:53.768Z,25.60
2019-03-22T12:47:53.778Z,25.63
2019-03-22T12:48:53.747Z,25.63
2019-03-22T12:49:53.738Z,25.50
2019-03-22T12:50:53.777Z,25.50
2019-03-22T12:51:53.716Z,25.47
2019-03-22T12:52:53.714Z,25.40
2019-03-22T12:53:53.706Z,25.33
2019-03-22T12:54:53.685Z,25.35
2019-03-22T12:55:53.805Z,25.18
2019-03-22T12:56:53.668Z,25.11
2019-03-22T12:57:53.766Z,25.07
2019-03-22T12:58:53.645Z,25.10
2019-03-22T12:59:53.637Z,25.10
2019-03-22T13:00:53.626Z,24.99
2019-03-22T13:01:53.617Z,25.07
2019-03-22T13:02:53.617Z,25.16
2019-03-22T13:03:53.609Z,25.14
2019-03-22T13:04:53.581Z,25.07
2019-03-22T13:05:53.593Z,24.93
2019-03-22T13:06:53.560Z,24.78
2019-03-22T13:07:53.578Z,24.73